createdAt,value
2019-02-11T00:02:27.018Z,994.51
2019-02-11T00:07:26.780Z,994.64
2019-02-11T00:12:26.919Z,994.82
2019-02-11T00:17:26.854Z,994.95
2019-02-11T00:22:26.889Z,994.96
2019-02-11T00:27:26.885Z,995.07
2019-02-11T00:32:26.964Z,995.08
2019-02-11T00:37:26.899Z,995.40
2019-02-11T00:42:26.884Z,995.48
2019-02-11T00:47:27.063Z,995.73
2019-02-11T00:52:26.864Z,995.74
2019-02-11T00:57:26.807Z,995.95
2019-02-11T01:02:26.836Z,996.11
2019-02-11T01:07:27.114Z,996.26
2019-02-11T01:12:26.902Z,996.43
2019-02-11T01:17:26.847Z,996.21
2019-02-11T01:22:26.908Z,996.38
2019-02-11T01:27:26.928Z,996.43
2019-02-11T01:32:26.863Z,996.62
2019-02-11T01:37:26.989Z,996.79
2019-02-11T01:42:26.996Z,996.77
2019-02-11T01:47:27.093Z,996.92
2019-02-11T01:52:27.109Z,996.97
2019-02-11T01:57:26.902Z,997.07
2019-02-11T02:02:26.842Z,997.07
2019-02-11T02:07:26.895Z,997.09
2019-02-11T02:12:27.039Z,997.21
2019-02-11T02:17:26.970Z,997.32
2019-02-11T02:22:26.889Z,997.31
2019-02-11T02:27:26.927Z,997.55
2019-02-11T02:32:26.986Z,997.65
2019-02-11T02:37:26.886Z,997.73
2019-02-11T02:42:26.938Z,997.86
2019-02-11T02:47:27.150Z,997.87
2019-02-11T02:52:26.878Z,997.91
2019-02-11T02:57:27.030Z,997.94
2019-02-11T03:02:26.970Z,998.07
2019-02-11T03:07:27.234Z,998.17
2019-02-11T03:12:27.157Z,998.11
2019-02-11T03:17:26.964Z,998.34
2019-02-11T03:22:27.214Z,998.35
2019-02-11T03:27:27.059Z,998.57
2019-02-11T03:32:26.990Z,998.58
2019-02-11T03:37:27.217Z,998.84
2019-02-11T03:42:26.921Z,998.74
2019-02-11T03:47:26.982Z,998.90
2019-02-11T03:52:27.138Z,999.02
2019-02-11T03:57:26.954Z,999.08
2019-02-11T04:02:26.987Z,999.12
2019-02-11T04:07:27.047Z,999.29
2019-02-11T04:12:27.054Z,999.47
2019-02-11T04:17:27.004Z,999.58
2019-02-11T04:22:27.028Z,999.71
2019-02-11T04:27:27.292Z,999.68
2019-02-11T04:32:26.967Z,999.77
2019-02-11T04:37:27.021Z,999.95
2019-02-11T04:42:27.040Z,1000.03
2019-02-11T04:47:27.098Z,1000.25
2019-02-11T04:52:27.035Z,1000.13
2019-02-11T04:57:27.043Z,1000.27
2019-02-11T05:02:27.215Z,1000.34
2019-02-11T05:07:27.019Z,1000.30
2019-02-11T05:12:27.138Z,1000.43
2019-02-11T05:17:27.404Z,1000.52
2019-02-11T05:22:27.444Z,1000.62
2019-02-11T05:27:27.097Z,1000.74
2019-02-11T05:32:27.092Z,1000.81
2019-02-11T05:37:27.144Z,1000.93
2019-02-11T05:42:27.051Z,1000.97
2019-02-11T05:49:48.857Z,1001.06
2019-02-11T05:54:48.846Z,1001.12
2019-02-11T05:59:48.897Z,1001.20
2019-02-11T06:04:48.839Z,1001.32
2019-02-11T06:09:48.905Z,1001.40
2019-02-11T06:14:48.905Z,1001.42
2019-02-11T06:19:48.855Z,1001.59
2019-02-11T06:24:48.886Z,1001.70
2019-02-11T06:29:49.015Z,1001.82
2019-02-11T06:34:48.942Z,1001.91
2019-02-11T06:39:48.959Z,1002.03
2019-02-11T06:44:48.927Z,1002.27
2019-02-11T06:49:48.825Z,1002.33
2019-02-11T06:54:48.875Z,1002.47
2019-02-11T06:59:48.779Z,1002.65
2019-02-11T07:04:48.809Z,1002.78
2019-02-11T07:09:49.089Z,1002.93
2019-02-11T07:14:48.809Z,1002.99
2019-02-11T07:19:48.895Z,1003.28
2019-02-11T07:24:48.863Z,1003.26
2019-02-11T07:29:48.785Z,1003.32
2019-02-11T07:34:48.898Z,1003.48
2019-02-11T07:39:48.816Z,1003.60
2019-02-11T07:44:48.842Z,1003.70
2019-02-11T07:49:48.848Z,1003.72
2019-02-11T07:54:49.085Z,1003.83
2019-02-11T07:59:48.810Z,1003.94
2019-02-11T08:04:48.793Z,1004.00
2019-02-11T08:09:48.874Z,1004.08
2019-02-11T08:14:48.809Z,1004.24
2019-02-11T08:19:48.844Z,1004.28
2019-02-11T08:24:49.096Z,1004.46
2019-02-11T08:29:49.084Z,1004.47
2019-02-11T08:34:48.796Z,1004.52
2019-02-11T08:39:49.017Z,1004.64
2019-02-11T08:44:48.831Z,1004.75
2019-02-11T08:49:48.868Z,1004.86
2019-02-11T08:54:49.023Z,1005.02
2019-02-11T08:59:48.818Z,1005.06
2019-02-11T09:04:48.915Z,1005.06
2019-02-11T09:09:49.099Z,1005.21
2019-02-11T09:14:48.827Z,1005.28
2019-02-11T09:19:48.969Z,1005.30
2019-02-11T09:24:48.825Z,1005.34
2019-02-11T09:29:48.848Z,1005.39
2019-02-11T09:34:48.867Z,1005.56
2019-02-11T09:39:49.151Z,1005.63
2019-02-11T09:44:48.833Z,1005.74
2019-02-11T09:49:48.952Z,1005.89
2019-02-11T09:54:48.981Z,1006.04
2019-02-11T09:59:49.153Z,1006.21
2019-02-11T10:04:49.035Z,1006.26
2019-02-11T10:09:49.026Z,1006.39
2019-02-11T10:14:48.899Z,1006.43
2019-02-11T10:19:48.979Z,1006.51
2019-02-11T10:24:48.805Z,1006.59
2019-02-11T10:29:48.891Z,1006.72
2019-02-11T10:34:48.814Z,1006.79
2019-02-11T10:39:48.782Z,1006.85
2019-02-11T10:44:48.835Z,1007.14
2019-02-11T10:49:49.083Z,1007.24
2019-02-11T10:54:48.808Z,1007.28
2019-02-11T10:59:48.846Z,1007.25
2019-02-11T11:04:48.884Z,1007.26
2019-02-11T11:09:49.035Z,1007.30
2019-02-11T11:14:48.810Z,1007.36
2019-02-11T11:19:48.873Z,1007.49
2019-02-11T11:24:48.819Z,1007.63
2019-02-11T11:29:48.777Z,1007.65
2019-02-11T11:34:48.803Z,1007.74
2019-02-11T11:39:48.946Z,1007.70
2019-02-11T11:44:48.800Z,1007.66
2019-02-11T11:49:49.304Z,1007.64
2019-02-11T11:54:48.812Z,1007.66
2019-02-11T11:59:48.909Z,1007.87
2019-02-11T12:04:49.213Z,1008.00
2019-02-11T12:09:49.171Z,1008.09
2019-02-11T12:14:48.926Z,1008.27
2019-02-11T12:19:49.417Z,1008.29
2019-02-11T12:24:49.262Z,1008.37
2019-02-11T12:29:48.968Z,1008.48
2019-02-11T12:34:48.917Z,1008.53
2019-02-11T12:39:48.840Z,1008.71
2019-02-11T12:44:48.887Z,1008.81
2019-02-11T12:49:49.113Z,1008.88
2019-02-11T12:54:48.938Z,1008.99
2019-02-11T12:59:48.838Z,1009.09
2019-02-11T13:04:49.008Z,1009.13
2019-02-11T13:09:48.842Z,1009.06
2019-02-11T13:14:49.039Z,1009.16
2019-02-11T13:20:06.738Z,1009.26
2019-02-11T13:24:48.850Z,1009.24
2019-02-11T13:29:48.827Z,1009.19
2019-02-11T13:34:48.943Z,1009.28
2019-02-11T13:39:48.827Z,1009.42
2019-02-11T13:44:48.898Z,1009.62
2019-02-11T13:49:48.847Z,1009.87
2019-02-11T13:54:48.873Z,1010.10
2019-02-11T13:59:48.821Z,1010.25
2019-02-11T14:04:48.883Z,1010.20
2019-02-11T14:09:48.901Z,1010.41
2019-02-11T14:14:48.948Z,1010.56
2019-02-11T14:19:48.988Z,1010.69
2019-02-11T14:24:48.979Z,1010.67
2019-02-11T14:29:49.040Z,1010.66
2019-02-11T14:34:48.882Z,1010.82
2019-02-11T14:39:48.883Z,1011.02
2019-02-11T14:44:48.958Z,1011.06
2019-02-11T14:49:48.890Z,1011.10
2019-02-11T14:54:48.919Z,1011.43
2019-02-11T14:59:48.900Z,1011.51
2019-02-11T15:04:48.847Z,1011.44
2019-02-11T15:09:48.966Z,1011.41
2019-02-11T15:14:48.904Z,1011.44
2019-02-11T15:19:48.844Z,1011.49
2019-02-11T15:24:48.988Z,1011.42
2019-02-11T15:29:49.227Z,1011.50
2019-02-11T15:34:48.931Z,1011.66
2019-02-11T15:39:49.404Z,1011.84
2019-02-11T15:44:48.841Z,1011.91
2019-02-11T15:49:49.078Z,1011.99
2019-02-11T15:54:49.001Z,1012.10
2019-02-11T15:59:49.721Z,1012.20
2019-02-11T16:04:49.189Z,1012.30
2019-02-11T16:09:49.036Z,1012.50
2019-02-11T16:14:48.983Z,1012.62
2019-02-11T16:19:49.089Z,1012.71
2019-02-11T16:24:49.006Z,1012.95
2019-02-11T16:29:48.959Z,1013.07
2019-02-11T16:34:48.964Z,1013.22
2019-02-11T16:39:49.044Z,1013.32
2019-02-11T16:44:49.108Z,1013.39
2019-02-11T16:49:48.874Z,1013.62
2019-02-11T16:54:48.899Z,1013.79
2019-02-11T16:59:49.037Z,1014.02
2019-02-11T17:04:49.051Z,1014.19
2019-02-11T17:09:48.900Z,1014.13
2019-02-11T17:14:48.934Z,1014.31
2019-02-11T17:19:48.928Z,1014.44
2019-02-11T17:24:48.958Z,1014.70
2019-02-11T17:29:49.045Z,1014.71
2019-02-11T17:34:48.871Z,1014.90
2019-02-11T17:39:49.209Z,1015.02
2019-02-11T17:44:48.936Z,1015.05
2019-02-11T17:49:48.833Z,1015.05
2019-02-11T17:54:48.908Z,1015.11
2019-02-11T17:59:48.852Z,1015.26
2019-02-11T18:04:48.921Z,1015.34
2019-02-11T18:09:48.982Z,1015.39
2019-02-11T18:14:48.919Z,1015.42
2019-02-11T18:19:48.921Z,1015.52
2019-02-11T18:24:48.929Z,1015.55
2019-02-11T18:29:48.945Z,1015.54
2019-02-11T18:34:48.933Z,1015.60
2019-02-11T18:39:49.039Z,1015.77
2019-02-11T18:44:48.893Z,1015.92
2019-02-11T18:49:49.077Z,1015.90
2019-02-11T18:54:49.054Z,1016.13
2019-02-11T18:59:48.973Z,1015.99
2019-02-11T19:04:49.147Z,1016.24
2019-02-11T19:09:48.926Z,1016.49
2019-02-11T19:14:49.100Z,1016.50
2019-02-11T19:19:48.901Z,1016.34
2019-02-11T19:24:48.954Z,1016.00
2019-02-11T19:29:48.857Z,1015.97
2019-02-11T19:34:48.910Z,1016.06
2019-02-11T19:39:48.924Z,1015.97
2019-02-11T19:44:48.871Z,1016.19
2019-02-11T19:49:51.737Z,1016.70
2019-02-11T19:54:49.313Z,1016.60
2019-02-11T19:59:48.973Z,1016.69
2019-02-11T20:04:48.992Z,1016.53
2019-02-11T20:09:48.970Z,1016.81
2019-02-11T20:14:48.947Z,1016.81
2019-02-11T20:19:49.118Z,1016.86
2019-02-11T20:24:48.974Z,1016.99
2019-02-11T20:29:48.959Z,1017.17
2019-02-11T20:34:48.886Z,1017.19
2019-02-11T20:39:48.965Z,1017.36
2019-02-11T20:44:48.874Z,1017.44
2019-02-11T20:49:48.941Z,1017.46
2019-02-11T20:54:49.131Z,1017.57
2019-02-11T20:59:48.874Z,1017.59
2019-02-11T21:04:49.098Z,1017.62
2019-02-11T21:09:49.053Z,1017.78
2019-02-11T21:14:48.874Z,1017.74
2019-02-11T21:19:49.126Z,1017.85
2019-02-11T21:24:48.842Z,1018.01
2019-02-11T21:29:48.891Z,1018.03
2019-02-11T21:34:48.909Z,1018.12
2019-02-11T21:39:48.993Z,1018.25
2019-02-11T21:44:48.902Z,1018.34
2019-02-11T21:49:49.233Z,1018.33
2019-02-11T21:54:48.848Z,1018.37
2019-02-11T21:59:48.934Z,1018.33
2019-02-11T22:04:49.035Z,1018.33
2019-02-11T22:09:48.924Z,1018.44
2019-02-11T22:14:48.959Z,1018.46
2019-02-11T22:19:48.950Z,1018.52
2019-02-11T22:24:49.178Z,1018.50
2019-02-11T22:29:48.905Z,1018.54
2019-02-11T22:34:48.942Z,1018.65
2019-02-11T22:39:48.861Z,1018.83
2019-02-11T22:44:48.880Z,1018.88
2019-02-11T22:49:49.241Z,1018.86
2019-02-11T22:54:48.876Z,1018.83
2019-02-11T22:59:48.964Z,1018.77
2019-02-11T23:04:49.053Z,1018.84
2019-02-11T23:09:49.024Z,1018.81
2019-02-11T23:14:49.110Z,1018.80
2019-02-11T23:19:49.074Z,1018.83
2019-02-11T23:24:48.884Z,1018.93
2019-02-11T23:29:48.882Z,1019.19
2019-02-11T23:34:48.945Z,1019.27
2019-02-11T23:39:48.894Z,1019.20
2019-02-11T23:44:49.219Z,1019.30
2019-02-11T23:49:49.138Z,1019.40
2019-02-11T23:54:48.929Z,1019.50
2019-02-11T23:59:49.139Z,1019.39
